RDN1 KMKC-KPDK
Flight info
| Callsign | RDN1 |
|---|---|
| Flight time | N/A |
| Altitude | 41000 |
| Route | LAKES5 COU CNG RIZZZ BUKHD3 |
| Aircraft | B737/M-SDE2E3FGHIRWXY/LB1 |
Departure
| Time | 2026-04-18 08:42 |
|---|---|
| Airport | Charles B. Wheeler Downtown Airport (KMKC) |
Arrival
| Time | N/A |
|---|---|
| Airport | DeKalb Peachtree Airport (KPDK) |
| Time | Latitude | Longitude | Altitude | Speed | Heading |
|---|---|---|---|---|---|
| 2026-04-18 07:41 | 39.11560 | -94.59243 | 746 ft | 0 kts | 94° |
| 2026-04-18 08:33 | 39.11560 | -94.59255 | 742 ft | 4 kts | 100° |
| 2026-04-18 08:34 | 39.11569 | -94.59285 | 743 ft | 4 kts | 141° |
| 2026-04-18 08:34 | 39.11590 | -94.59294 | 743 ft | 2 kts | 194° |
| 2026-04-18 08:34 | 39.11596 | -94.59292 | 743 ft | 0 kts | 195° |
| 2026-04-18 08:38 | 39.11595 | -94.59292 | 743 ft | 1 kts | 190° |
| 2026-04-18 08:38 | 39.11572 | -94.59297 | 742 ft | 7 kts | 190° |
| 2026-04-18 08:39 | 39.11536 | -94.59344 | 747 ft | 9 kts | 231° |
| 2026-04-18 08:39 | 39.11481 | -94.59386 | 748 ft | 10 kts | 210° |
| 2026-04-18 08:39 | 39.11468 | -94.59466 | 748 ft | 10 kts | 279° |
| 2026-04-18 08:39 | 39.11497 | -94.59524 | 748 ft | 7 kts | 349° |
| 2026-04-18 08:40 | 39.11539 | -94.59515 | 748 ft | 2 kts | 14° |
| 2026-04-18 08:40 | 39.11542 | -94.59514 | 745 ft | 0 kts | 14° |
| 2026-04-18 08:41 | 39.11612 | -94.59494 | 746 ft | 50 kts | 12° |
| 2026-04-18 08:41 | 39.12331 | -94.59285 | 755 ft | 158 kts | 9° |
| 2026-04-18 08:42 | 39.13571 | -94.58918 | 1573 ft | 198 kts | 11° |
| 2026-04-18 08:42 | 39.14994 | -94.58447 | 2906 ft | 226 kts | 13° |
| 2026-04-18 08:42 | 39.16451 | -94.57519 | 4320 ft | 239 kts | 34° |
| 2026-04-18 08:42 | 39.17451 | -94.55731 | 5604 ft | 261 kts | 60° |
| 2026-04-18 08:43 | 39.17772 | -94.53330 | 6505 ft | 289 kts | 89° |
| 2026-04-18 08:43 | 39.17397 | -94.50710 | 7483 ft | 301 kts | 103° |
| 2026-04-18 08:43 | 39.16845 | -94.48069 | 8532 ft | 308 kts | 106° |
| 2026-04-18 08:43 | 39.16601 | -94.46967 | 8978 ft | 311 kts | 107° |
| 2026-04-18 08:44 | 39.16062 | -94.44494 | 9959 ft | 316 kts | 108° |
| 2026-04-18 08:44 | 39.15470 | -94.41714 | 10756 ft | 331 kts | 109° |
| 2026-04-18 08:44 | 39.14839 | -94.38720 | 11112 ft | 360 kts | 108° |
| 2026-04-18 08:44 | 39.14182 | -94.35544 | 11880 ft | 372 kts | 108° |
| 2026-04-18 08:45 | 39.13516 | -94.32290 | 12827 ft | 379 kts | 109° |
| 2026-04-18 08:45 | 39.12838 | -94.28971 | 13767 ft | 388 kts | 109° |
| 2026-04-18 08:45 | 39.12145 | -94.25578 | 14652 ft | 395 kts | 110° |
| 2026-04-18 08:45 | 39.11439 | -94.22125 | 15566 ft | 402 kts | 110° |
| 2026-04-18 08:46 | 39.10718 | -94.18610 | 16479 ft | 409 kts | 111° |
| 2026-04-18 08:46 | 39.09985 | -94.15053 | 17482 ft | 414 kts | 111° |
| 2026-04-18 08:46 | 39.09357 | -94.11387 | 18344 ft | 428 kts | 104° |
| 2026-04-18 08:46 | 39.09041 | -94.07530 | 19140 ft | 436 kts | 101° |
| 2026-04-18 08:47 | 39.08813 | -94.03624 | 20101 ft | 438 kts | 101° |
| 2026-04-18 08:47 | 39.08611 | -93.99754 | 21051 ft | 440 kts | 101° |
| 2026-04-18 08:47 | 39.08401 | -93.95816 | 21953 ft | 443 kts | 102° |
| 2026-04-18 08:47 | 39.08175 | -93.91843 | 22819 ft | 446 kts | 103° |
| 2026-04-18 08:48 | 39.07933 | -93.87847 | 23651 ft | 450 kts | 104° |
| 2026-04-18 08:48 | 39.07679 | -93.83821 | 24333 ft | 453 kts | 104° |
| 2026-04-18 08:48 | 39.07415 | -93.79760 | 24971 ft | 457 kts | 103° |
| 2026-04-18 08:48 | 39.07147 | -93.75676 | 25695 ft | 459 kts | 103° |
| 2026-04-18 08:49 | 39.06876 | -93.71570 | 26366 ft | 462 kts | 104° |
| 2026-04-18 08:49 | 39.06600 | -93.67425 | 26998 ft | 466 kts | 104° |
| 2026-04-18 08:49 | 39.06320 | -93.63249 | 27622 ft | 470 kts | 103° |
| 2026-04-18 08:49 | 39.06038 | -93.59044 | 28283 ft | 473 kts | 103° |
| 2026-04-18 08:50 | 39.05754 | -93.54818 | 28901 ft | 476 kts | 104° |
| 2026-04-18 08:50 | 39.05466 | -93.50567 | 29490 ft | 479 kts | 104° |
| 2026-04-18 08:50 | 39.05173 | -93.46278 | 30048 ft | 483 kts | 104° |
| 2026-04-18 08:50 | 39.04877 | -93.41958 | 30483 ft | 487 kts | 104° |
| 2026-04-18 08:51 | 39.04576 | -93.37596 | 30862 ft | 491 kts | 104° |
| 2026-04-18 08:51 | 39.04271 | -93.33203 | 31222 ft | 496 kts | 104° |
| 2026-04-18 08:51 | 39.03962 | -93.28766 | 31582 ft | 500 kts | 104° |
| 2026-04-18 08:51 | 39.03650 | -93.24296 | 31927 ft | 504 kts | 104° |
| 2026-04-18 08:52 | 39.03333 | -93.19790 | 32274 ft | 507 kts | 104° |
| 2026-04-18 08:52 | 39.03012 | -93.15242 | 32605 ft | 511 kts | 104° |
| 2026-04-18 08:52 | 39.02689 | -93.10686 | 32972 ft | 513 kts | 104° |
| 2026-04-18 08:52 | 39.02364 | -93.06106 | 33432 ft | 513 kts | 104° |
| 2026-04-18 08:53 | 39.02041 | -93.01565 | 34032 ft | 507 kts | 105° |
| 2026-04-18 08:53 | 39.01720 | -92.97075 | 34589 ft | 503 kts | 105° |
| 2026-04-18 08:53 | 39.01391 | -92.92583 | 34806 ft | 507 kts | 105° |
| 2026-04-18 08:53 | 39.01042 | -92.88052 | 34962 ft | 510 kts | 107° |
| 2026-04-18 08:54 | 39.00521 | -92.84284 | 35176 ft | 502 kts | 114° |
| 2026-04-18 08:54 | 38.99468 | -92.80086 | 35513 ft | 488 kts | 123° |
| 2026-04-18 08:54 | 38.98198 | -92.76055 | 35862 ft | 486 kts | 124° |
| 2026-04-18 08:54 | 38.96896 | -92.72031 | 36121 ft | 488 kts | 124° |
| 2026-04-18 08:55 | 38.95591 | -92.67991 | 36368 ft | 491 kts | 124° |
| 2026-04-18 08:55 | 38.94298 | -92.63929 | 36656 ft | 492 kts | 123° |
| 2026-04-18 08:55 | 38.93013 | -92.59842 | 36975 ft | 493 kts | 123° |
| 2026-04-18 08:55 | 38.91733 | -92.55747 | 37241 ft | 495 kts | 123° |
| 2026-04-18 08:56 | 38.90453 | -92.51638 | 37496 ft | 497 kts | 123° |
| 2026-04-18 08:56 | 38.89168 | -92.47518 | 37771 ft | 498 kts | 124° |
| 2026-04-18 08:56 | 38.87877 | -92.43381 | 38035 ft | 499 kts | 124° |
| 2026-04-18 08:56 | 38.86585 | -92.39248 | 38270 ft | 500 kts | 124° |
| 2026-04-18 08:57 | 38.83997 | -92.31004 | 38719 ft | 503 kts | 124° |
| 2026-04-18 08:57 | 38.83114 | -92.28195 | 38877 ft | 503 kts | 124° |
| 2026-04-18 08:57 | 38.81373 | -92.22744 | 38940 ft | 505 kts | 127° |
| 2026-04-18 08:58 | 38.77923 | -92.15163 | 38961 ft | 486 kts | 136° |
| 2026-04-18 08:58 | 38.74799 | -92.09147 | 38946 ft | 483 kts | 137° |
| 2026-04-18 08:59 | 38.71084 | -92.02009 | 38951 ft | 481 kts | 137° |
| 2026-04-18 08:59 | 38.67412 | -91.94870 | 38954 ft | 480 kts | 137° |
| 2026-04-18 09:00 | 38.63764 | -91.87727 | 38913 ft | 478 kts | 135° |
| 2026-04-18 09:00 | 38.60129 | -91.80620 | 38954 ft | 477 kts | 135° |
| 2026-04-18 09:01 | 38.56480 | -91.73513 | 38959 ft | 479 kts | 135° |
| 2026-04-18 09:01 | 38.52832 | -91.66425 | 38957 ft | 482 kts | 135° |
| 2026-04-18 09:02 | 38.49135 | -91.59254 | 38951 ft | 485 kts | 135° |
| 2026-04-18 09:02 | 38.45413 | -91.52045 | 38917 ft | 487 kts | 134° |
| 2026-04-18 09:03 | 38.41679 | -91.44819 | 38933 ft | 488 kts | 134° |
| 2026-04-18 09:03 | 38.37930 | -91.37591 | 38952 ft | 489 kts | 134° |
| 2026-04-18 09:04 | 38.34174 | -91.30365 | 38951 ft | 489 kts | 134° |
| 2026-04-18 09:04 | 38.30411 | -91.23140 | 38961 ft | 489 kts | 134° |
| 2026-04-18 09:05 | 38.26653 | -91.15940 | 38964 ft | 488 kts | 134° |
| 2026-04-18 09:05 | 38.22898 | -91.08761 | 38960 ft | 486 kts | 134° |
| 2026-04-18 09:06 | 38.19178 | -91.01666 | 38952 ft | 484 kts | 134° |
| 2026-04-18 09:06 | 38.15453 | -90.94574 | 38930 ft | 481 kts | 134° |
| 2026-04-18 09:07 | 38.11736 | -90.87517 | 38901 ft | 479 kts | 134° |
| 2026-04-18 09:07 | 38.08031 | -90.80498 | 38907 ft | 478 kts | 134° |
| 2026-04-18 09:08 | 38.04334 | -90.73507 | 38914 ft | 476 kts | 133° |
| 2026-04-18 09:08 | 38.00646 | -90.66550 | 38909 ft | 473 kts | 133° |
| 2026-04-18 09:09 | 37.96976 | -90.59641 | 38910 ft | 472 kts | 134° |
| 2026-04-18 09:09 | 37.93311 | -90.52753 | 38915 ft | 470 kts | 133° |
| 2026-04-18 09:10 | 37.89662 | -90.45913 | 38924 ft | 469 kts | 133° |
| 2026-04-18 09:10 | 37.86009 | -90.39083 | 38927 ft | 468 kts | 133° |
| 2026-04-18 09:11 | 37.82361 | -90.32268 | 38920 ft | 467 kts | 133° |
| 2026-04-18 09:11 | 37.78711 | -90.25472 | 38924 ft | 467 kts | 133° |
| 2026-04-18 09:12 | 37.75047 | -90.18663 | 38921 ft | 468 kts | 133° |
| 2026-04-18 09:12 | 37.71372 | -90.11848 | 38887 ft | 470 kts | 133° |
| 2026-04-18 09:13 | 37.67699 | -90.05047 | 38893 ft | 472 kts | 133° |
| 2026-04-18 09:13 | 37.63994 | -89.98201 | 38879 ft | 474 kts | 133° |
| 2026-04-18 09:14 | 37.60250 | -89.91298 | 38893 ft | 477 kts | 132° |
| 2026-04-18 09:14 | 37.56486 | -89.84372 | 38892 ft | 481 kts | 132° |
| 2026-04-18 09:15 | 37.52693 | -89.77407 | 38886 ft | 483 kts | 132° |
| 2026-04-18 09:15 | 37.48879 | -89.70415 | 38886 ft | 485 kts | 132° |
| 2026-04-18 09:16 | 37.45056 | -89.63421 | 38872 ft | 485 kts | 132° |
| 2026-04-18 09:16 | 37.41223 | -89.56424 | 38871 ft | 485 kts | 132° |
| 2026-04-18 09:17 | 37.37387 | -89.49437 | 38872 ft | 485 kts | 132° |
| 2026-04-18 09:17 | 37.33557 | -89.42476 | 38873 ft | 484 kts | 132° |
| 2026-04-18 09:18 | 37.29725 | -89.35528 | 38873 ft | 483 kts | 132° |
| 2026-04-18 09:18 | 37.25895 | -89.28595 | 38893 ft | 483 kts | 133° |
| 2026-04-18 09:19 | 37.22060 | -89.21671 | 38861 ft | 485 kts | 131° |
| 2026-04-18 09:19 | 37.18150 | -89.14638 | 38910 ft | 498 kts | 131° |
| 2026-04-18 09:20 | 37.14184 | -89.07500 | 38896 ft | 500 kts | 131° |
| 2026-04-18 09:20 | 37.10205 | -89.00349 | 38887 ft | 500 kts | 131° |
| 2026-04-18 09:21 | 37.06220 | -88.93210 | 38893 ft | 499 kts | 131° |
| 2026-04-18 09:21 | 37.02263 | -88.86133 | 38892 ft | 498 kts | 131° |
| 2026-04-18 09:22 | 36.98332 | -88.78979 | 38863 ft | 499 kts | 130° |
| 2026-04-18 09:22 | 36.94533 | -88.71739 | 38886 ft | 499 kts | 130° |
| 2026-04-18 09:23 | 36.90727 | -88.64454 | 38888 ft | 499 kts | 130° |
| 2026-04-18 09:23 | 36.86908 | -88.57209 | 38880 ft | 500 kts | 130° |
| 2026-04-18 09:24 | 36.83063 | -88.49959 | 38890 ft | 500 kts | 130° |
| 2026-04-18 09:24 | 36.79211 | -88.42719 | 38884 ft | 501 kts | 130° |
| 2026-04-18 09:25 | 36.75349 | -88.35473 | 38901 ft | 501 kts | 130° |
| 2026-04-18 09:25 | 36.71483 | -88.28235 | 38888 ft | 501 kts | 130° |
| 2026-04-18 09:26 | 36.67614 | -88.21003 | 38892 ft | 502 kts | 130° |
| 2026-04-18 09:26 | 36.63733 | -88.13768 | 38892 ft | 503 kts | 130° |
| 2026-04-18 09:27 | 36.59869 | -88.06579 | 38876 ft | 503 kts | 131° |
| 2026-04-18 09:27 | 36.55975 | -87.99347 | 38895 ft | 503 kts | 131° |
| 2026-04-18 09:28 | 36.52073 | -87.92116 | 38894 ft | 503 kts | 131° |
| 2026-04-18 09:28 | 36.48169 | -87.84898 | 38876 ft | 503 kts | 131° |
| 2026-04-18 09:29 | 36.44257 | -87.77680 | 38896 ft | 503 kts | 131° |
| 2026-04-18 09:29 | 36.40339 | -87.70468 | 38889 ft | 503 kts | 131° |
| 2026-04-18 09:30 | 36.36425 | -87.63277 | 38908 ft | 503 kts | 131° |
| 2026-04-18 09:30 | 36.32506 | -87.56092 | 38920 ft | 503 kts | 131° |
| 2026-04-18 09:31 | 36.28578 | -87.48908 | 38922 ft | 503 kts | 131° |
| 2026-04-18 09:31 | 36.24650 | -87.41736 | 38923 ft | 503 kts | 131° |
| 2026-04-18 09:32 | 36.20719 | -87.34574 | 38903 ft | 503 kts | 131° |
| 2026-04-18 09:32 | 36.16780 | -87.27412 | 38923 ft | 503 kts | 131° |
| 2026-04-18 09:33 | 36.12839 | -87.20264 | 38927 ft | 504 kts | 131° |
| 2026-04-18 09:33 | 36.08883 | -87.13103 | 38925 ft | 504 kts | 131° |
| 2026-04-18 09:34 | 36.04922 | -87.05946 | 38932 ft | 504 kts | 131° |
| 2026-04-18 09:34 | 36.00956 | -86.98795 | 38927 ft | 505 kts | 131° |
| 2026-04-18 09:35 | 35.96977 | -86.91636 | 38918 ft | 505 kts | 131° |
| 2026-04-18 09:35 | 35.92994 | -86.84485 | 38945 ft | 506 kts | 131° |
| 2026-04-18 09:36 | 35.89003 | -86.77334 | 38962 ft | 506 kts | 131° |
| 2026-04-18 09:36 | 35.85027 | -86.70224 | 38955 ft | 507 kts | 131° |
| 2026-04-18 09:37 | 35.81021 | -86.63075 | 38963 ft | 507 kts | 131° |
| 2026-04-18 09:37 | 35.77007 | -86.55927 | 38952 ft | 507 kts | 131° |
| 2026-04-18 09:38 | 35.72994 | -86.48793 | 38962 ft | 507 kts | 131° |
| 2026-04-18 09:38 | 35.68969 | -86.41657 | 38933 ft | 507 kts | 131° |
| 2026-04-18 09:39 | 35.64946 | -86.34538 | 38952 ft | 507 kts | 131° |
| 2026-04-18 09:39 | 35.60911 | -86.27411 | 38958 ft | 508 kts | 131° |
| 2026-04-18 09:40 | 35.57553 | -86.21490 | 38974 ft | 509 kts | 131° |
| 2026-04-18 09:40 | 35.53475 | -86.14311 | 38955 ft | 509 kts | 130° |
| 2026-04-18 09:41 | 35.49355 | -86.07266 | 38961 ft | 504 kts | 137° |
| 2026-04-18 09:41 | 35.44335 | -86.01579 | 38982 ft | 490 kts | 150° |
| 2026-04-18 09:42 | 35.38910 | -85.96511 | 38977 ft | 491 kts | 151° |
| 2026-04-18 09:42 | 35.33466 | -85.91404 | 38976 ft | 494 kts | 150° |
| 2026-04-18 09:43 | 35.28019 | -85.86224 | 38990 ft | 497 kts | 150° |
| 2026-04-18 09:43 | 35.22558 | -85.81009 | 38977 ft | 499 kts | 150° |
| 2026-04-18 09:44 | 35.17076 | -85.75782 | 38936 ft | 500 kts | 150° |
| 2026-04-18 09:44 | 35.11575 | -85.70552 | 38962 ft | 502 kts | 150° |
| 2026-04-18 09:45 | 35.06054 | -85.65312 | 38973 ft | 503 kts | 150° |
| 2026-04-18 09:45 | 35.00521 | -85.60070 | 38971 ft | 504 kts | 150° |
| 2026-04-18 09:46 | 34.94978 | -85.54828 | 38975 ft | 505 kts | 150° |
| 2026-04-18 09:46 | 34.89497 | -85.49653 | 38901 ft | 484 kts | 152° |
| 2026-04-18 09:47 | 34.86872 | -85.47197 | 38930 ft | 468 kts | 151° |
| 2026-04-18 09:47 | 34.84338 | -85.44788 | 38947 ft | 455 kts | 152° |
| 2026-04-18 09:47 | 34.81874 | -85.42450 | 38950 ft | 441 kts | 151° |
| 2026-04-18 09:47 | 34.79492 | -85.40187 | 38957 ft | 428 kts | 152° |
| 2026-04-18 09:48 | 34.77172 | -85.37984 | 38955 ft | 417 kts | 152° |
| 2026-04-18 09:48 | 34.74923 | -85.35860 | 38981 ft | 417 kts | 152° |
| 2026-04-18 09:48 | 34.70228 | -85.31463 | 39015 ft | 436 kts | 152° |
| 2026-04-18 09:49 | 34.65380 | -85.26900 | 38982 ft | 441 kts | 151° |
| 2026-04-18 09:49 | 34.60588 | -85.22367 | 38980 ft | 434 kts | 152° |
| 2026-04-18 09:50 | 34.55783 | -85.17851 | 38997 ft | 439 kts | 152° |
| 2026-04-18 09:50 | 34.50929 | -85.13294 | 39011 ft | 443 kts | 152° |
| 2026-04-18 09:51 | 34.46039 | -85.08706 | 39015 ft | 444 kts | 152° |
| 2026-04-18 09:51 | 34.41162 | -85.04130 | 38981 ft | 442 kts | 151° |
| 2026-04-18 09:52 | 34.36318 | -84.99589 | 38965 ft | 439 kts | 151° |
| 2026-04-18 09:52 | 34.31512 | -84.95093 | 38983 ft | 435 kts | 152° |
| 2026-04-18 09:53 | 34.26722 | -84.90621 | 39020 ft | 434 kts | 152° |
| 2026-04-18 09:53 | 34.22140 | -84.85775 | 39013 ft | 449 kts | 134° |
| 2026-04-18 09:54 | 34.20405 | -84.82598 | 39040 ft | 457 kts | 120° |
| 2026-04-18 09:54 | 34.19216 | -84.79017 | 39034 ft | 462 kts | 108° |
| 2026-04-18 09:54 | 34.17440 | -84.71505 | 39020 ft | 467 kts | 107° |
| 2026-04-18 09:55 | 34.15583 | -84.64028 | 39049 ft | 469 kts | 108° |
| 2026-04-18 09:55 | 34.14164 | -84.56376 | 39053 ft | 470 kts | 99° |
| 2026-04-18 09:56 | 34.13605 | -84.52275 | 39034 ft | 471 kts | 98° |